Kezdőlap
METAR-TAF:

METAR-TAF

Repülőterek :

Cleburne Municipal Airport

Cleburne, Texas, Amerikai Egyesült Államok

földrajzi szélesség: 32-21-13N, földrajzi hosszúság: 097-26-01W, magasság: 260 m

Jelenlegi meteorológiai megfigyelések

A jelentés 34 perccel ezelõtt készült, 20:55 UTC
Délkeleti szél 12 kt
Hőmérséklet 33°C
Páratartalom 46%
Légköri nyomás 1012 hPa
Látótávolság: 16.1 km
Szórványos felhőzet 5000 lábon

METAR: KCPT 152055Z AUTO 13012KT 10SM SCT050 33/20 A2989 RMK A01

Idő: 16:29 (21:29 UTC)


TAF: hiányzik

Meteorológiai megfigyelések és előrejelzések több, mint 4000 repülőtéren (METAR és TAF jelentéseket).

A térképen piros és sárga pontok jelzik az elérhető meteorológiai állomásokat.

Mozgassa az egeret a pont fölött, hogy megjelenjen az állomás neve.

Azután kattintson az időjárási megfigyelések és előrejelzések megtekintéséhez.

A térkép megváltoztatása: kattintson a fekete keresztel jelölt zöld gombra ráközelítéshez, a vonallal jelölt zöld gombra távolításhoz, vagy a zöld nyilakra a szomszédos térképek eléréséhez.


METAR-TAF: